sensor_id;sensor_type;location;lat;lon;timestamp;P1;durP1;ratioP1;P2;durP2;ratioP2
72406;SDS011;60396;47.550;18.828;2023-04-24T00:00:27;11.83;;;4.20;;
72406;SDS011;60396;47.550;18.828;2023-04-24T00:02:55;11.63;;;3.78;;
72406;SDS011;60396;47.550;18.828;2023-04-24T00:05:24;9.98;;;4.00;;
72406;SDS011;60396;47.550;18.828;2023-04-24T00:07:52;12.05;;;4.22;;
72406;SDS011;60396;47.550;18.828;2023-04-24T00:10:20;9.88;;;4.15;;
72406;SDS011;60396;47.550;18.828;2023-04-24T00:12:48;9.10;;;3.73;;
72406;SDS011;60396;47.550;18.828;2023-04-24T00:15:16;11.00;;;4.10;;
72406;SDS011;60396;47.550;18.828;2023-04-24T00:17:44;12.75;;;4.53;;
72406;SDS011;60396;47.550;18.828;2023-04-24T00:20:11;8.75;;;3.85;;
72406;SDS011;60396;47.550;18.828;2023-04-24T00:22:39;8.38;;;4.05;;
72406;SDS011;60396;47.550;18.828;2023-04-24T00:25:07;9.57;;;4.50;;
72406;SDS011;60396;47.550;18.828;2023-04-24T00:27:35;9.25;;;3.78;;
72406;SDS011;60396;47.550;18.828;2023-04-24T00:30:05;12.57;;;4.22;;
72406;SDS011;60396;47.550;18.828;2023-04-24T00:32:33;9.85;;;3.87;;
72406;SDS011;60396;47.550;18.828;2023-04-24T00:35:01;9.90;;;4.20;;
72406;SDS011;60396;47.550;18.828;2023-04-24T00:37:29;10.03;;;4.13;;
72406;SDS011;60396;47.550;18.828;2023-04-24T00:39:57;12.60;;;4.15;;
72406;SDS011;60396;47.550;18.828;2023-04-24T00:42:25;11.10;;;3.92;;
72406;SDS011;60396;47.550;18.828;2023-04-24T00:44:53;10.02;;;4.10;;
72406;SDS011;60396;47.550;18.828;2023-04-24T00:47:21;10.43;;;4.40;;
72406;SDS011;60396;47.550;18.828;2023-04-24T00:49:51;9.77;;;4.43;;
72406;SDS011;60396;47.550;18.828;2023-04-24T00:52:19;10.18;;;4.12;;
72406;SDS011;60396;47.550;18.828;2023-04-24T00:54:48;10.80;;;4.45;;
72406;SDS011;60396;47.550;18.828;2023-04-24T00:57:15;9.15;;;3.62;;
72406;SDS011;60396;47.550;18.828;2023-04-24T00:59:43;14.43;;;4.12;;
72406;SDS011;60396;47.550;18.828;2023-04-24T01:02:12;11.73;;;4.03;;
72406;SDS011;60396;47.550;18.828;2023-04-24T01:04:40;10.52;;;4.32;;
72406;SDS011;60396;47.550;18.828;2023-04-24T01:07:08;9.50;;;4.32;;
72406;SDS011;60396;47.550;18.828;2023-04-24T01:09:38;9.55;;;4.10;;
72406;SDS011;60396;47.550;18.828;2023-04-24T01:12:09;10.75;;;4.32;;
72406;SDS011;60396;47.550;18.828;2023-04-24T01:14:37;11.30;;;4.27;;
72406;SDS011;60396;47.550;18.828;2023-04-24T01:17:05;7.80;;;3.75;;
72406;SDS011;60396;47.550;18.828;2023-04-24T01:19:33;12.20;;;4.43;;
72406;SDS011;60396;47.550;18.828;2023-04-24T01:22:02;12.30;;;4.10;;
72406;SDS011;60396;47.550;18.828;2023-04-24T01:24:29;11.82;;;4.18;;
72406;SDS011;60396;47.550;18.828;2023-04-24T01:26:57;10.77;;;4.17;;
72406;SDS011;60396;47.550;18.828;2023-04-24T01:29:26;13.15;;;4.62;;
72406;SDS011;60396;47.550;18.828;2023-04-24T01:31:54;9.63;;;4.70;;
72406;SDS011;60396;47.550;18.828;2023-04-24T01:34:22;10.38;;;4.20;;
72406;SDS011;60396;47.550;18.828;2023-04-24T01:36:50;10.43;;;4.95;;
72406;SDS011;60396;47.550;18.828;2023-04-24T01:39:19;11.70;;;4.60;;
72406;SDS011;60396;47.550;18.828;2023-04-24T01:41:47;12.65;;;5.07;;
72406;SDS011;60396;47.550;18.828;2023-04-24T01:44:18;12.52;;;5.47;;
72406;SDS011;60396;47.550;18.828;2023-04-24T01:46:46;11.05;;;5.05;;
72406;SDS011;60396;47.550;18.828;2023-04-24T01:49:13;14.48;;;5.87;;
72406;SDS011;60396;47.550;18.828;2023-04-24T01:51:41;13.30;;;5.20;;
72406;SDS011;60396;47.550;18.828;2023-04-24T01:54:09;16.30;;;5.05;;
72406;SDS011;60396;47.550;18.828;2023-04-24T01:56:37;9.23;;;5.12;;
72406;SDS011;60396;47.550;18.828;2023-04-24T01:59:11;14.77;;;4.80;;
72406;SDS011;60396;47.550;18.828;2023-04-24T02:01:40;11.93;;;4.85;;
72406;SDS011;60396;47.550;18.828;2023-04-24T02:04:08;9.93;;;4.63;;
72406;SDS011;60396;47.550;18.828;2023-04-24T02:06:36;10.95;;;4.78;;
72406;SDS011;60396;47.550;18.828;2023-04-24T02:09:04;10.13;;;4.50;;
72406;SDS011;60396;47.550;18.828;2023-04-24T02:11:32;9.57;;;4.20;;
72406;SDS011;60396;47.550;18.828;2023-04-24T02:14:00;10.88;;;4.05;;
72406;SDS011;60396;47.550;18.828;2023-04-24T02:16:28;8.70;;;3.93;;
72406;SDS011;60396;47.550;18.828;2023-04-24T02:19:00;14.82;;;5.30;;
72406;SDS011;60396;47.550;18.828;2023-04-24T02:21:27;9.57;;;3.55;;
72406;SDS011;60396;47.550;18.828;2023-04-24T02:23:55;9.52;;;3.55;;
72406;SDS011;60396;47.550;18.828;2023-04-24T02:26:23;11.80;;;3.70;;
72406;SDS011;60396;47.550;18.828;2023-04-24T02:28:51;7.37;;;3.60;;
72406;SDS011;60396;47.550;18.828;2023-04-24T02:31:20;6.07;;;2.53;;
72406;SDS011;60396;47.550;18.828;2023-04-24T02:33:48;6.55;;;2.95;;
72406;SDS011;60396;47.550;18.828;2023-04-24T02:36:16;7.65;;;2.58;;
72406;SDS011;60396;47.550;18.828;2023-04-24T02:38:44;8.13;;;2.75;;
72406;SDS011;60396;47.550;18.828;2023-04-24T02:41:12;8.80;;;2.77;;
72406;SDS011;60396;47.550;18.828;2023-04-24T02:43:42;9.10;;;2.92;;
72406;SDS011;60396;47.550;18.828;2023-04-24T02:46:09;8.52;;;2.87;;
72406;SDS011;60396;47.550;18.828;2023-04-24T02:48:37;6.82;;;2.80;;
72406;SDS011;60396;47.550;18.828;2023-04-24T02:51:05;8.80;;;3.35;;
72406;SDS011;60396;47.550;18.828;2023-04-24T02:53:33;8.23;;;2.80;;
72406;SDS011;60396;47.550;18.828;2023-04-24T02:56:02;8.20;;;3.22;;
72406;SDS011;60396;47.550;18.828;2023-04-24T02:58:29;8.13;;;3.53;;
72406;SDS011;60396;47.550;18.828;2023-04-24T03:00:57;8.18;;;3.25;;
72406;SDS011;60396;47.550;18.828;2023-04-24T03:03:25;8.45;;;3.25;;
72406;SDS011;60396;47.550;18.828;2023-04-24T03:05:53;8.53;;;3.13;;
72406;SDS011;60396;47.550;18.828;2023-04-24T03:08:21;7.30;;;3.30;;
72406;SDS011;60396;47.550;18.828;2023-04-24T03:10:48;8.05;;;2.95;;
72406;SDS011;60396;47.550;18.828;2023-04-24T03:13:16;7.62;;;3.10;;
72406;SDS011;60396;47.550;18.828;2023-04-24T03:15:44;9.38;;;3.37;;
72406;SDS011;60396;47.550;18.828;2023-04-24T03:18:13;7.30;;;3.03;;
72406;SDS011;60396;47.550;18.828;2023-04-24T03:20:42;7.25;;;2.70;;
72406;SDS011;60396;47.550;18.828;2023-04-24T03:23:09;9.73;;;3.70;;
72406;SDS011;60396;47.550;18.828;2023-04-24T03:25:37;7.90;;;2.80;;
72406;SDS011;60396;47.550;18.828;2023-04-24T03:28:05;7.32;;;2.85;;
72406;SDS011;60396;47.550;18.828;2023-04-24T03:30:33;5.97;;;2.80;;
72406;SDS011;60396;47.550;18.828;2023-04-24T03:33:02;6.95;;;2.72;;
72406;SDS011;60396;47.550;18.828;2023-04-24T03:35:30;7.80;;;2.70;;
72406;SDS011;60396;47.550;18.828;2023-04-24T03:38:00;7.28;;;2.80;;
72406;SDS011;60396;47.550;18.828;2023-04-24T03:40:29;7.85;;;2.87;;
72406;SDS011;60396;47.550;18.828;2023-04-24T03:42:57;7.73;;;2.83;;
72406;SDS011;60396;47.550;18.828;2023-04-24T03:45:25;7.85;;;2.85;;
72406;SDS011;60396;47.550;18.828;2023-04-24T03:47:53;7.43;;;2.65;;
72406;SDS011;60396;47.550;18.828;2023-04-24T03:50:21;9.10;;;2.87;;
72406;SDS011;60396;47.550;18.828;2023-04-24T03:52:49;8.38;;;3.30;;
72406;SDS011;60396;47.550;18.828;2023-04-24T03:55:17;7.90;;;3.03;;
72406;SDS011;60396;47.550;18.828;2023-04-24T03:57:45;6.05;;;2.58;;
72406;SDS011;60396;47.550;18.828;2023-04-24T04:00:14;9.40;;;3.30;;
72406;SDS011;60396;47.550;18.828;2023-04-24T04:02:43;8.07;;;3.33;;
72406;SDS011;60396;47.550;18.828;2023-04-24T04:05:11;9.85;;;3.10;;
72406;SDS011;60396;47.550;18.828;2023-04-24T04:07:39;8.53;;;3.10;;
72406;SDS011;60396;47.550;18.828;2023-04-24T04:10:07;9.90;;;3.40;;
72406;SDS011;60396;47.550;18.828;2023-04-24T04:12:37;9.90;;;3.45;;
72406;SDS011;60396;47.550;18.828;2023-04-24T04:15:04;7.80;;;3.30;;
72406;SDS011;60396;47.550;18.828;2023-04-24T04:17:34;10.10;;;3.35;;
72406;SDS011;60396;47.550;18.828;2023-04-24T04:20:05;7.53;;;3.07;;
72406;SDS011;60396;47.550;18.828;2023-04-24T04:22:37;8.90;;;2.97;;
72406;SDS011;60396;47.550;18.828;2023-04-24T04:25:05;12.32;;;3.22;;
72406;SDS011;60396;47.550;18.828;2023-04-24T04:27:34;10.18;;;3.25;;
72406;SDS011;60396;47.550;18.828;2023-04-24T04:30:05;7.62;;;2.95;;
72406;SDS011;60396;47.550;18.828;2023-04-24T04:32:34;13.43;;;3.60;;
72406;SDS011;60396;47.550;18.828;2023-04-24T04:35:02;7.75;;;3.65;;
72406;SDS011;60396;47.550;18.828;2023-04-24T04:37:34;8.23;;;3.42;;
72406;SDS011;60396;47.550;18.828;2023-04-24T04:40:02;9.98;;;3.80;;
72406;SDS011;60396;47.550;18.828;2023-04-24T04:42:34;9.27;;;3.87;;
72406;SDS011;60396;47.550;18.828;2023-04-24T04:45:01;11.20;;;3.77;;
72406;SDS011;60396;47.550;18.828;2023-04-24T04:47:32;8.27;;;3.65;;
72406;SDS011;60396;47.550;18.828;2023-04-24T04:50:01;8.52;;;4.12;;
72406;SDS011;60396;47.550;18.828;2023-04-24T04:52:28;9.90;;;4.35;;
72406;SDS011;60396;47.550;18.828;2023-04-24T04:54:57;9.82;;;4.68;;
72406;SDS011;60396;47.550;18.828;2023-04-24T04:57:26;10.47;;;4.33;;
72406;SDS011;60396;47.550;18.828;2023-04-24T04:59:55;9.15;;;4.55;;
72406;SDS011;60396;47.550;18.828;2023-04-24T05:02:25;8.90;;;4.68;;
72406;SDS011;60396;47.550;18.828;2023-04-24T05:04:53;10.77;;;4.60;;
72406;SDS011;60396;47.550;18.828;2023-04-24T05:07:20;12.52;;;4.90;;
72406;SDS011;60396;47.550;18.828;2023-04-24T05:09:50;11.83;;;4.50;;
72406;SDS011;60396;47.550;18.828;2023-04-24T05:12:19;12.77;;;4.35;;
72406;SDS011;60396;47.550;18.828;2023-04-24T05:14:47;10.27;;;4.25;;
72406;SDS011;60396;47.550;18.828;2023-04-24T05:17:14;11.05;;;4.50;;
72406;SDS011;60396;47.550;18.828;2023-04-24T05:19:43;10.88;;;4.40;;
72406;SDS011;60396;47.550;18.828;2023-04-24T05:22:13;10.50;;;4.17;;
72406;SDS011;60396;47.550;18.828;2023-04-24T05:24:42;8.77;;;3.80;;
72406;SDS011;60396;47.550;18.828;2023-04-24T05:27:14;11.45;;;4.65;;
72406;SDS011;60396;47.550;18.828;2023-04-24T05:29:42;9.27;;;4.12;;
72406;SDS011;60396;47.550;18.828;2023-04-24T05:32:11;11.02;;;4.90;;
72406;SDS011;60396;47.550;18.828;2023-04-24T05:34:38;12.27;;;4.80;;
72406;SDS011;60396;47.550;18.828;2023-04-24T05:37:06;11.02;;;4.32;;
72406;SDS011;60396;47.550;18.828;2023-04-24T05:39:37;9.35;;;4.25;;
72406;SDS011;60396;47.550;18.828;2023-04-24T05:42:05;10.95;;;4.35;;
72406;SDS011;60396;47.550;18.828;2023-04-24T05:44:33;12.35;;;4.62;;
72406;SDS011;60396;47.550;18.828;2023-04-24T05:47:00;11.97;;;4.73;;
72406;SDS011;60396;47.550;18.828;2023-04-24T05:49:28;11.57;;;4.57;;
72406;SDS011;60396;47.550;18.828;2023-04-24T05:51:57;9.85;;;4.68;;
72406;SDS011;60396;47.550;18.828;2023-04-24T05:54:24;11.60;;;4.75;;
72406;SDS011;60396;47.550;18.828;2023-04-24T05:56:52;11.12;;;4.65;;
72406;SDS011;60396;47.550;18.828;2023-04-24T05:59:23;9.30;;;4.00;;
72406;SDS011;60396;47.550;18.828;2023-04-24T06:01:51;12.90;;;4.12;;
72406;SDS011;60396;47.550;18.828;2023-04-24T06:04:19;10.93;;;5.00;;
72406;SDS011;60396;47.550;18.828;2023-04-24T06:06:47;9.93;;;4.50;;
72406;SDS011;60396;47.550;18.828;2023-04-24T06:09:18;10.48;;;4.85;;
72406;SDS011;60396;47.550;18.828;2023-04-24T06:11:46;8.50;;;4.40;;
72406;SDS011;60396;47.550;18.828;2023-04-24T06:14:14;10.43;;;4.70;;
72406;SDS011;60396;47.550;18.828;2023-04-24T06:16:44;12.23;;;5.00;;
72406;SDS011;60396;47.550;18.828;2023-04-24T06:19:16;12.18;;;4.93;;
72406;SDS011;60396;47.550;18.828;2023-04-24T06:21:44;13.65;;;5.18;;
72406;SDS011;60396;47.550;18.828;2023-04-24T06:24:13;11.33;;;4.93;;
72406;SDS011;60396;47.550;18.828;2023-04-24T06:26:43;17.00;;;5.60;;
72406;SDS011;60396;47.550;18.828;2023-04-24T06:29:10;16.02;;;5.68;;
72406;SDS011;60396;47.550;18.828;2023-04-24T06:31:38;12.05;;;5.12;;
72406;SDS011;60396;47.550;18.828;2023-04-24T06:34:06;12.88;;;5.05;;
72406;SDS011;60396;47.550;18.828;2023-04-24T06:36:33;15.50;;;6.00;;
72406;SDS011;60396;47.550;18.828;2023-04-24T06:39:02;11.65;;;5.30;;
72406;SDS011;60396;47.550;18.828;2023-04-24T06:41:31;14.05;;;5.93;;
72406;SDS011;60396;47.550;18.828;2023-04-24T06:43:58;10.70;;;5.20;;
72406;SDS011;60396;47.550;18.828;2023-04-24T06:46:26;11.93;;;5.75;;
72406;SDS011;60396;47.550;18.828;2023-04-24T06:48:55;11.23;;;5.57;;
72406;SDS011;60396;47.550;18.828;2023-04-24T06:51:23;13.38;;;5.45;;
72406;SDS011;60396;47.550;18.828;2023-04-24T06:53:52;10.68;;;5.25;;
72406;SDS011;60396;47.550;18.828;2023-04-24T06:56:20;13.40;;;5.55;;
72406;SDS011;60396;47.550;18.828;2023-04-24T06:58:48;11.15;;;5.68;;
72406;SDS011;60396;47.550;18.828;2023-04-24T07:01:15;19.37;;;5.53;;
72406;SDS011;60396;47.550;18.828;2023-04-24T07:03:43;10.30;;;4.90;;
72406;SDS011;60396;47.550;18.828;2023-04-24T07:06:12;11.55;;;5.20;;
72406;SDS011;60396;47.550;18.828;2023-04-24T07:08:39;10.40;;;4.82;;
72406;SDS011;60396;47.550;18.828;2023-04-24T07:11:09;11.07;;;5.30;;
72406;SDS011;60396;47.550;18.828;2023-04-24T07:13:37;9.17;;;4.97;;
72406;SDS011;60396;47.550;18.828;2023-04-24T07:16:09;9.27;;;4.68;;
72406;SDS011;60396;47.550;18.828;2023-04-24T07:18:38;14.20;;;5.72;;
72406;SDS011;60396;47.550;18.828;2023-04-24T07:21:07;10.93;;;5.22;;
72406;SDS011;60396;47.550;18.828;2023-04-24T07:23:35;10.60;;;5.47;;
72406;SDS011;60396;47.550;18.828;2023-04-24T07:26:02;13.53;;;5.30;;
72406;SDS011;60396;47.550;18.828;2023-04-24T07:28:30;11.52;;;5.50;;
72406;SDS011;60396;47.550;18.828;2023-04-24T07:30:58;10.07;;;5.18;;
72406;SDS011;60396;47.550;18.828;2023-04-24T07:33:27;14.13;;;5.85;;
72406;SDS011;60396;47.550;18.828;2023-04-24T07:35:54;10.88;;;6.32;;
72406;SDS011;60396;47.550;18.828;2023-04-24T07:38:22;13.90;;;6.33;;
72406;SDS011;60396;47.550;18.828;2023-04-24T07:40:50;14.75;;;5.57;;
72406;SDS011;60396;47.550;18.828;2023-04-24T07:43:19;10.70;;;5.03;;
72406;SDS011;60396;47.550;18.828;2023-04-24T07:45:47;12.93;;;5.55;;
72406;SDS011;60396;47.550;18.828;2023-04-24T07:48:15;12.00;;;5.87;;
72406;SDS011;60396;47.550;18.828;2023-04-24T07:50:44;9.97;;;5.10;;
72406;SDS011;60396;47.550;18.828;2023-04-24T07:53:13;13.50;;;5.72;;
72406;SDS011;60396;47.550;18.828;2023-04-24T07:55:40;10.90;;;5.32;;
72406;SDS011;60396;47.550;18.828;2023-04-24T07:58:08;12.30;;;5.65;;
72406;SDS011;60396;47.550;18.828;2023-04-24T08:00:36;10.75;;;5.20;;
72406;SDS011;60396;47.550;18.828;2023-04-24T08:03:03;9.00;;;4.50;;
72406;SDS011;60396;47.550;18.828;2023-04-24T08:05:31;9.48;;;4.20;;
72406;SDS011;60396;47.550;18.828;2023-04-24T08:07:59;10.32;;;4.40;;
72406;SDS011;60396;47.550;18.828;2023-04-24T08:10:27;9.88;;;3.65;;
72406;SDS011;60396;47.550;18.828;2023-04-24T08:12:55;9.32;;;3.60;;
72406;SDS011;60396;47.550;18.828;2023-04-24T08:15:22;8.33;;;3.57;;
72406;SDS011;60396;47.550;18.828;2023-04-24T08:17:50;8.13;;;3.60;;
72406;SDS011;60396;47.550;18.828;2023-04-24T08:20:18;10.38;;;5.55;;
72406;SDS011;60396;47.550;18.828;2023-04-24T08:22:45;13.88;;;5.20;;
72406;SDS011;60396;47.550;18.828;2023-04-24T08:25:15;13.07;;;5.37;;
72406;SDS011;60396;47.550;18.828;2023-04-24T08:27:43;13.57;;;5.03;;
72406;SDS011;60396;47.550;18.828;2023-04-24T08:30:10;13.38;;;5.35;;
72406;SDS011;60396;47.550;18.828;2023-04-24T08:32:39;9.02;;;4.68;;
72406;SDS011;60396;47.550;18.828;2023-04-24T08:35:07;10.63;;;5.00;;
72406;SDS011;60396;47.550;18.828;2023-04-24T08:37:38;11.88;;;6.68;;
72406;SDS011;60396;47.550;18.828;2023-04-24T08:40:14;13.07;;;5.07;;
72406;SDS011;60396;47.550;18.828;2023-04-24T08:42:43;11.73;;;5.20;;
72406;SDS011;60396;47.550;18.828;2023-04-24T08:45:12;11.07;;;5.20;;
72406;SDS011;60396;47.550;18.828;2023-04-24T08:47:40;12.00;;;5.28;;
72406;SDS011;60396;47.550;18.828;2023-04-24T08:50:08;11.57;;;5.95;;
72406;SDS011;60396;47.550;18.828;2023-04-24T08:52:36;10.27;;;5.17;;
72406;SDS011;60396;47.550;18.828;2023-04-24T08:55:04;10.38;;;4.80;;
72406;SDS011;60396;47.550;18.828;2023-04-24T08:57:33;10.73;;;4.53;;
72406;SDS011;60396;47.550;18.828;2023-04-24T09:00:03;9.50;;;4.45;;
72406;SDS011;60396;47.550;18.828;2023-04-24T09:02:31;11.10;;;4.80;;
72406;SDS011;60396;47.550;18.828;2023-04-24T09:05:02;8.90;;;3.90;;
72406;SDS011;60396;47.550;18.828;2023-04-24T09:07:31;11.02;;;4.53;;
72406;SDS011;60396;47.550;18.828;2023-04-24T09:10:03;12.75;;;4.50;;
72406;SDS011;60396;47.550;18.828;2023-04-24T09:12:31;10.07;;;4.20;;
72406;SDS011;60396;47.550;18.828;2023-04-24T09:14:58;9.68;;;4.32;;
72406;SDS011;60396;47.550;18.828;2023-04-24T09:17:27;9.60;;;4.67;;
72406;SDS011;60396;47.550;18.828;2023-04-24T09:19:56;9.90;;;5.00;;
72406;SDS011;60396;47.550;18.828;2023-04-24T09:22:24;9.55;;;4.37;;
72406;SDS011;60396;47.550;18.828;2023-04-24T09:25:03;9.80;;;4.35;;
72406;SDS011;60396;47.550;18.828;2023-04-24T09:27:32;10.38;;;4.78;;
72406;SDS011;60396;47.550;18.828;2023-04-24T09:30:01;10.43;;;4.83;;
72406;SDS011;60396;47.550;18.828;2023-04-24T09:32:29;12.80;;;5.35;;
72406;SDS011;60396;47.550;18.828;2023-04-24T09:35:08;11.35;;;4.85;;
72406;SDS011;60396;47.550;18.828;2023-04-24T09:37:39;10.32;;;4.70;;
72406;SDS011;60396;47.550;18.828;2023-04-24T09:42:51;13.20;;;5.63;;
72406;SDS011;60396;47.550;18.828;2023-04-24T09:45:19;13.05;;;5.50;;
72406;SDS011;60396;47.550;18.828;2023-04-24T09:47:51;12.02;;;5.80;;
72406;SDS011;60396;47.550;18.828;2023-04-24T09:50:20;11.55;;;5.97;;
72406;SDS011;60396;47.550;18.828;2023-04-24T09:52:59;13.40;;;6.37;;
72406;SDS011;60396;47.550;18.828;2023-04-24T09:55:29;11.93;;;5.93;;
72406;SDS011;60396;47.550;18.828;2023-04-24T09:57:58;10.63;;;5.78;;
72406;SDS011;60396;47.550;18.828;2023-04-24T10:00:28;12.23;;;6.93;;
72406;SDS011;60396;47.550;18.828;2023-04-24T10:03:01;10.68;;;6.05;;
72406;SDS011;60396;47.550;18.828;2023-04-24T10:05:30;13.27;;;6.15;;
72406;SDS011;60396;47.550;18.828;2023-04-24T10:08:04;12.20;;;6.20;;
72406;SDS011;60396;47.550;18.828;2023-04-24T10:10:34;15.00;;;6.75;;
72406;SDS011;60396;47.550;18.828;2023-04-24T10:13:04;11.35;;;6.53;;
72406;SDS011;60396;47.550;18.828;2023-04-24T10:15:32;12.98;;;6.53;;
72406;SDS011;60396;47.550;18.828;2023-04-24T10:17:59;12.68;;;7.57;;
72406;SDS011;60396;47.550;18.828;2023-04-24T10:20:28;13.73;;;6.67;;
72406;SDS011;60396;47.550;18.828;2023-04-24T10:22:58;13.20;;;6.68;;
72406;SDS011;60396;47.550;18.828;2023-04-24T10:25:27;15.48;;;6.90;;
72406;SDS011;60396;47.550;18.828;2023-04-24T10:27:58;14.02;;;7.05;;
72406;SDS011;60396;47.550;18.828;2023-04-24T10:30:27;12.30;;;7.62;;
72406;SDS011;60396;47.550;18.828;2023-04-24T10:33:06;13.00;;;6.97;;
72406;SDS011;60396;47.550;18.828;2023-04-24T10:35:36;15.23;;;7.55;;
72406;SDS011;60396;47.550;18.828;2023-04-24T10:38:09;13.07;;;7.25;;
72406;SDS011;60396;47.550;18.828;2023-04-24T10:40:39;14.07;;;7.93;;
72406;SDS011;60396;47.550;18.828;2023-04-24T10:43:08;13.75;;;7.10;;
72406;SDS011;60396;47.550;18.828;2023-04-24T10:45:38;15.23;;;6.87;;
72406;SDS011;60396;47.550;18.828;2023-04-24T10:48:09;13.38;;;7.18;;
72406;SDS011;60396;47.550;18.828;2023-04-24T10:50:46;13.27;;;7.28;;
72406;SDS011;60396;47.550;18.828;2023-04-24T10:53:19;17.62;;;8.02;;
72406;SDS011;60396;47.550;18.828;2023-04-24T10:55:48;13.73;;;7.15;;
72406;SDS011;60396;47.550;18.828;2023-04-24T10:58:24;13.47;;;6.97;;
72406;SDS011;60396;47.550;18.828;2023-04-24T11:01:04;12.57;;;7.40;;
72406;SDS011;60396;47.550;18.828;2023-04-24T11:03:32;14.05;;;7.35;;
72406;SDS011;60396;47.550;18.828;2023-04-24T11:06:08;16.90;;;7.35;;
72406;SDS011;60396;47.550;18.828;2023-04-24T11:08:42;12.35;;;6.80;;
72406;SDS011;60396;47.550;18.828;2023-04-24T11:11:16;15.20;;;7.10;;
72406;SDS011;60396;47.550;18.828;2023-04-24T11:16:26;13.18;;;6.53;;
72406;SDS011;60396;47.550;18.828;2023-04-24T11:19:01;11.88;;;5.65;;
72406;SDS011;60396;47.550;18.828;2023-04-24T11:21:39;11.75;;;6.37;;
72406;SDS011;60396;47.550;18.828;2023-04-24T11:26:58;12.37;;;5.45;;
72406;SDS011;60396;47.550;18.828;2023-04-24T11:29:46;12.48;;;5.25;;
72406;SDS011;60396;47.550;18.828;2023-04-24T11:32:17;11.15;;;5.03;;
72406;SDS011;60396;47.550;18.828;2023-04-24T11:34:47;11.45;;;4.45;;
72406;SDS011;60396;47.550;18.828;2023-04-24T11:37:16;8.50;;;3.77;;
72406;SDS011;60396;47.550;18.828;2023-04-24T11:39:43;10.68;;;3.53;;
72406;SDS011;60396;47.550;18.828;2023-04-24T11:42:14;7.85;;;3.45;;
72406;SDS011;60396;47.550;18.828;2023-04-24T11:44:42;8.38;;;2.92;;
72406;SDS011;60396;47.550;18.828;2023-04-24T11:47:10;8.70;;;3.17;;
72406;SDS011;60396;47.550;18.828;2023-04-24T11:49:38;5.80;;;2.60;;
72406;SDS011;60396;47.550;18.828;2023-04-24T11:52:06;6.75;;;2.08;;
72406;SDS011;60396;47.550;18.828;2023-04-24T11:54:33;6.50;;;2.25;;
72406;SDS011;60396;47.550;18.828;2023-04-24T11:57:05;7.72;;;2.33;;
72406;SDS011;60396;47.550;18.828;2023-04-24T11:59:35;5.37;;;1.80;;
72406;SDS011;60396;47.550;18.828;2023-04-24T12:02:04;5.60;;;2.10;;
72406;SDS011;60396;47.550;18.828;2023-04-24T12:04:39;6.37;;;2.22;;
72406;SDS011;60396;47.550;18.828;2023-04-24T12:07:11;7.20;;;2.30;;
72406;SDS011;60396;47.550;18.828;2023-04-24T12:09:42;6.53;;;2.42;;
72406;SDS011;60396;47.550;18.828;2023-04-24T12:12:16;7.68;;;3.12;;
72406;SDS011;60396;47.550;18.828;2023-04-24T12:14:48;13.03;;;4.27;;
72406;SDS011;60396;47.550;18.828;2023-04-24T12:17:17;7.68;;;2.78;;
72406;SDS011;60396;47.550;18.828;2023-04-24T12:19:45;8.63;;;2.37;;
72406;SDS011;60396;47.550;18.828;2023-04-24T12:22:14;5.97;;;2.25;;
72406;SDS011;60396;47.550;18.828;2023-04-24T12:27:25;7.70;;;2.70;;
72406;SDS011;60396;47.550;18.828;2023-04-24T12:29:53;9.05;;;3.03;;
72406;SDS011;60396;47.550;18.828;2023-04-24T12:32:23;9.10;;;3.20;;
72406;SDS011;60396;47.550;18.828;2023-04-24T12:34:55;8.07;;;2.40;;
72406;SDS011;60396;47.550;18.828;2023-04-24T12:37:26;7.85;;;2.45;;
72406;SDS011;60396;47.550;18.828;2023-04-24T12:42:32;9.98;;;3.95;;
72406;SDS011;60396;47.550;18.828;2023-04-24T12:45:01;8.40;;;3.60;;
72406;SDS011;60396;47.550;18.828;2023-04-24T12:47:31;12.88;;;4.07;;
72406;SDS011;60396;47.550;18.828;2023-04-24T12:50:01;9.07;;;3.50;;
72406;SDS011;60396;47.550;18.828;2023-04-24T12:52:29;6.57;;;2.60;;
72406;SDS011;60396;47.550;18.828;2023-04-24T12:54:58;8.52;;;3.22;;
72406;SDS011;60396;47.550;18.828;2023-04-24T12:57:27;7.50;;;3.22;;
72406;SDS011;60396;47.550;18.828;2023-04-24T12:59:57;8.45;;;3.28;;
72406;SDS011;60396;47.550;18.828;2023-04-24T13:02:26;9.00;;;3.60;;
72406;SDS011;60396;47.550;18.828;2023-04-24T13:04:55;7.47;;;2.60;;
72406;SDS011;60396;47.550;18.828;2023-04-24T13:07:23;8.73;;;2.78;;
72406;SDS011;60396;47.550;18.828;2023-04-24T13:09:51;7.53;;;2.83;;
72406;SDS011;60396;47.550;18.828;2023-04-24T13:12:20;8.75;;;3.40;;
72406;SDS011;60396;47.550;18.828;2023-04-24T13:14:48;9.07;;;3.37;;
72406;SDS011;60396;47.550;18.828;2023-04-24T13:17:16;11.87;;;4.20;;
72406;SDS011;60396;47.550;18.828;2023-04-24T13:19:44;8.82;;;3.75;;
72406;SDS011;60396;47.550;18.828;2023-04-24T13:22:12;8.63;;;3.62;;
72406;SDS011;60396;47.550;18.828;2023-04-24T13:24:40;8.88;;;3.47;;
72406;SDS011;60396;47.550;18.828;2023-04-24T13:27:08;7.15;;;3.05;;
72406;SDS011;60396;47.550;18.828;2023-04-24T13:29:37;9.77;;;3.20;;
72406;SDS011;60396;47.550;18.828;2023-04-24T13:32:04;8.93;;;3.20;;
72406;SDS011;60396;47.550;18.828;2023-04-24T13:34:33;8.55;;;3.40;;
72406;SDS011;60396;47.550;18.828;2023-04-24T13:37:02;8.50;;;4.03;;
72406;SDS011;60396;47.550;18.828;2023-04-24T13:39:33;9.52;;;3.83;;
72406;SDS011;60396;47.550;18.828;2023-04-24T13:42:01;6.40;;;3.13;;
72406;SDS011;60396;47.550;18.828;2023-04-24T13:44:31;9.07;;;3.83;;
72406;SDS011;60396;47.550;18.828;2023-04-24T13:46:59;9.38;;;3.90;;
72406;SDS011;60396;47.550;18.828;2023-04-24T13:49:26;9.63;;;4.20;;
72406;SDS011;60396;47.550;18.828;2023-04-24T13:51:55;10.02;;;4.72;;
72406;SDS011;60396;47.550;18.828;2023-04-24T13:54:23;9.70;;;5.13;;
72406;SDS011;60396;47.550;18.828;2023-04-24T13:56:53;9.13;;;5.20;;
72406;SDS011;60396;47.550;18.828;2023-04-24T13:59:23;11.45;;;5.82;;
72406;SDS011;60396;47.550;18.828;2023-04-24T14:01:51;10.73;;;6.03;;
72406;SDS011;60396;47.550;18.828;2023-04-24T14:04:19;10.32;;;6.10;;
72406;SDS011;60396;47.550;18.828;2023-04-24T14:06:47;11.30;;;5.60;;
72406;SDS011;60396;47.550;18.828;2023-04-24T14:09:15;9.63;;;5.07;;
72406;SDS011;60396;47.550;18.828;2023-04-24T14:11:43;9.60;;;4.90;;
72406;SDS011;60396;47.550;18.828;2023-04-24T14:14:11;9.05;;;4.55;;
72406;SDS011;60396;47.550;18.828;2023-04-24T14:16:39;12.30;;;5.40;;
72406;SDS011;60396;47.550;18.828;2023-04-24T14:19:07;10.10;;;5.10;;
72406;SDS011;60396;47.550;18.828;2023-04-24T14:21:34;10.75;;;5.70;;
72406;SDS011;60396;47.550;18.828;2023-04-24T14:24:02;11.52;;;6.30;;
72406;SDS011;60396;47.550;18.828;2023-04-24T14:26:30;10.35;;;5.55;;
72406;SDS011;60396;47.550;18.828;2023-04-24T14:28:58;10.45;;;5.75;;
72406;SDS011;60396;47.550;18.828;2023-04-24T14:31:41;11.90;;;5.50;;
72406;SDS011;60396;47.550;18.828;2023-04-24T14:34:09;12.70;;;5.37;;
72406;SDS011;60396;47.550;18.828;2023-04-24T14:36:36;15.15;;;5.80;;
72406;SDS011;60396;47.550;18.828;2023-04-24T14:39:04;10.95;;;4.85;;
72406;SDS011;60396;47.550;18.828;2023-04-24T14:41:34;11.70;;;5.65;;
72406;SDS011;60396;47.550;18.828;2023-04-24T14:44:03;10.77;;;5.10;;
72406;SDS011;60396;47.550;18.828;2023-04-24T14:46:31;10.68;;;5.25;;
72406;SDS011;60396;47.550;18.828;2023-04-24T14:48:59;10.85;;;5.85;;
72406;SDS011;60396;47.550;18.828;2023-04-24T14:51:26;13.62;;;5.37;;